Relevés horaires Matro (Suisse)


Relevés horaires à Matro - Dimanche 11 Janv. 2015
Heure UTC1 Température [°C] Vent [km/h] Hum. [%] Pres.4 [hPa] Visi. [Km] Nébu. [octa] Préc.5 [mm] Cond.
2m. Res. Ros. Dir.2 Vit. Moy. Raf.3
23:00 -8.5 -17.5 -14.5 NO 29.6 37.0 55.6 62 850(2.0/3h) -- -- -- --
22:00 -9.5 -18.3 -13.2 NO 25.9 31.5 51.9 74 850(2.6/3h) -- -- -- --
21:00 -8.9 -18.8 -14.8 NO 35.2 51.9 77.8 62 850(3.0/3h) -- -- -- --
20:00 -8.7 -19.5 -15.2 NO 44.4 51.9 74.1 59 850(2.5/3h) -- -- -- --
19:00 -8.6 -19 -15.2 NO 40.7 46.3 77.8 59 850(2.7/3h) -- -- -- --
18:00 -8.4 -20.1 -14.7 NO 55.6 77.8 124.1 60 850(2.2/3h) -- -- -- --
17:00 -8.3 -20.1 -13.8 NO 57.4 68.5 113.0 64 850(1.8/3h) -- -- -- --
16:00 -7.8 -20.3 -14.9 NO 70.4 77.8 124.1 57 850(1.2/3h) -- -- -- --
15:00 -7.4 -18.8 -16.1 NO 57.4 70.4 107.4 50 850(-0.4/3h) -- -- -- --
14:00 -7.0 -17.4 -15.5 NO 46.3 57.4 96.3 51 850(-1.8/3h) -- -- -- --
13:00 -6.8 -17.1 -14.8 NNO 46.3 50.0 88.9 53 850(-1.2/3h) -- -- -- --
12:00 -6.0 -15.3 -14.8 NO 38.9 61.1 92.6 50 850(1.5/3h) -- -- -- --
11:00 -5.2 -14.9 -13.7 NNO 46.3 57.4 87.0 51 850(3.5/3h) -- -- -- --
10:00 -3.8 -14 -12.5 NNO 59.3 61.1 92.6 51 850(1.6/3h) -- -- -- --
09:00 -2.7 -11.8 -3.8 NO 50.0 50.0 85.2 92 850(-0.4/3h) -- -- -- --
08:00 0.9 -2.9 -1.7 NNO 13.0 20.4 31.5 83 850(-2.4/3h) -- -- -- --
07:00 1.9 -2.9 -2.3 O 20.4 20.4 29.6 74 850(-2.2/3h) -- -- -- --
06:00 2.2 -2.5 -2.5 SO 20.4 24.1 37.0 71 850(-2.6/3h) -- -- -- --
05:00 2.6 0.5 -2.3 OSO 7.4 13.0 18.5 70 850(-2.0/3h) -- -- -- --
04:00 2.8 -0.2 -2.2 SO 11.1 13.0 18.5 70 850(-1.8/3h) -- -- -- --
03:00 2.9 -0.5 -2.2 ONO 13.0 24.1 31.5 69 850(-1.7/3h) -- -- -- --
02:00 3.5 1.5 -3.0 ONO 7.4 20.4 27.8 62 850(-1.8/3h) -- -- -- --
01:00 3.5 -0.9 -2.7 ONO 20.4 24.1 31.5 64 850(-1.9/3h) -- -- -- --
00:00 3.6 -0.2 -2.7 NO 16.7 29.6 44.4 63 850 -- -- -- --

1 Coordinated Universal Time. Actuellement il est 14:00 locale et 12:00 UTC.

2 Le vent souffle depuis la direction indiquée vers la direction oposée.

3 Les rafales max. sont disponible 40 min après l'heure du relevé.

4 Pour les stations d'altitude (plus de 600m) le géopotentiel du niveau le plus proche de la pression obligatoire est indiqué.

5 Les stations disposant d'un diffuseur peuvent indiquer "trace". Cela signifie que des précipitations ont touchés le sol mais que la quantité est inférieure à 0.1 mm.

Copyright

Les données affichées sur cette page sont la propriété exclusive de Météo Suisse.

Récapitulatif de la journée
Température [°C] Vent [km/h] Ensoleillement4 [h] Precipitations totale5 [mm] Pression [Hpa]
Min1 Max.2 Moy.3 Max. Min Max.
2.3 2.6 43.3 124.1 4 h 42 min 0 850.0 850.0

1 Température minimale relevée entre 18:00 UTC la veille et 18:00 UTC le jour donné.

2 Température maximale relevée entre 06:00 UTC le jour donné et 06:00 UTC le lendemain.

3 Vent moyen de la journée basé sur les relevés horaires.

4 Ensoleillement en heures relevé entre 06:00 UTC la veille et 06:00 UTC le jour donné.

5 Précipitations totales tombées entre 06:00 UTC la jour donné et 06:00 UTC le lendemain.

Graphiques horaires